sensor_id;sensor_type;location;lat;lon;timestamp;P1;durP1;ratioP1;P2;durP2;ratioP2
71679;SDS011;59512;42.662;23.254;2022-11-06T00:00:56;27.40;;;14.90;;
71679;SDS011;59512;42.662;23.254;2022-11-06T00:03:21;28.63;;;14.23;;
71679;SDS011;59512;42.662;23.254;2022-11-06T00:05:47;29.60;;;13.77;;
71679;SDS011;59512;42.662;23.254;2022-11-06T00:08:35;31.92;;;18.00;;
71679;SDS011;59512;42.662;23.254;2022-11-06T00:11:12;34.30;;;16.10;;
71679;SDS011;59512;42.662;23.254;2022-11-06T00:13:38;37.30;;;19.58;;
71679;SDS011;59512;42.662;23.254;2022-11-06T00:16:05;36.95;;;20.05;;
71679;SDS011;59512;42.662;23.254;2022-11-06T00:18:32;39.22;;;17.70;;
71679;SDS011;59512;42.662;23.254;2022-11-06T00:20:58;30.37;;;15.43;;
71679;SDS011;59512;42.662;23.254;2022-11-06T00:23:24;32.00;;;15.63;;
71679;SDS011;59512;42.662;23.254;2022-11-06T00:25:50;28.43;;;15.30;;
71679;SDS011;59512;42.662;23.254;2022-11-06T00:28:19;29.27;;;14.50;;
71679;SDS011;59512;42.662;23.254;2022-11-06T00:30:45;34.63;;;17.13;;
71679;SDS011;59512;42.662;23.254;2022-11-06T00:33:10;31.67;;;16.43;;
71679;SDS011;59512;42.662;23.254;2022-11-06T00:35:36;35.80;;;18.30;;
71679;SDS011;59512;42.662;23.254;2022-11-06T00:38:03;35.40;;;16.63;;
71679;SDS011;59512;42.662;23.254;2022-11-06T00:40:29;25.20;;;14.93;;
71679;SDS011;59512;42.662;23.254;2022-11-06T00:42:54;24.20;;;14.00;;
71679;SDS011;59512;42.662;23.254;2022-11-06T00:45:21;25.43;;;14.80;;
71679;SDS011;59512;42.662;23.254;2022-11-06T00:47:46;34.80;;;16.02;;
71679;SDS011;59512;42.662;23.254;2022-11-06T00:50:11;33.60;;;16.20;;
71679;SDS011;59512;42.662;23.254;2022-11-06T00:52:37;29.53;;;15.37;;
71679;SDS011;59512;42.662;23.254;2022-11-06T00:55:02;33.57;;;15.63;;
71679;SDS011;59512;42.662;23.254;2022-11-06T00:57:28;31.42;;;15.63;;
71679;SDS011;59512;42.662;23.254;2022-11-06T00:59:53;27.40;;;15.07;;
71679;SDS011;59512;42.662;23.254;2022-11-06T01:02:19;31.40;;;14.87;;
71679;SDS011;59512;42.662;23.254;2022-11-06T01:04:45;30.02;;;16.95;;
71679;SDS011;59512;42.662;23.254;2022-11-06T01:07:11;33.80;;;16.93;;
71679;SDS011;59512;42.662;23.254;2022-11-06T01:09:36;32.83;;;17.00;;
71679;SDS011;59512;42.662;23.254;2022-11-06T01:12:02;27.00;;;15.57;;
71679;SDS011;59512;42.662;23.254;2022-11-06T01:14:28;33.10;;;17.17;;
71679;SDS011;59512;42.662;23.254;2022-11-06T01:16:54;35.35;;;17.85;;
71679;SDS011;59512;42.662;23.254;2022-11-06T01:19:20;34.27;;;17.33;;
71679;SDS011;59512;42.662;23.254;2022-11-06T01:21:47;34.15;;;16.92;;
71679;SDS011;59512;42.662;23.254;2022-11-06T01:24:14;29.20;;;16.20;;
71679;SDS011;59512;42.662;23.254;2022-11-06T01:26:41;30.08;;;16.45;;
71679;SDS011;59512;42.662;23.254;2022-11-06T01:29:09;38.73;;;17.17;;
71679;SDS011;59512;42.662;23.254;2022-11-06T01:31:36;34.33;;;17.85;;
71679;SDS011;59512;42.662;23.254;2022-11-06T01:34:01;36.63;;;18.10;;
71679;SDS011;59512;42.662;23.254;2022-11-06T01:36:28;33.22;;;16.85;;
71679;SDS011;59512;42.662;23.254;2022-11-06T01:38:54;36.30;;;17.85;;
71679;SDS011;59512;42.662;23.254;2022-11-06T01:41:24;31.90;;;16.95;;
71679;SDS011;59512;42.662;23.254;2022-11-06T01:43:58;33.00;;;17.05;;
71679;SDS011;59512;42.662;23.254;2022-11-06T01:46:26;32.03;;;17.50;;
71679;SDS011;59512;42.662;23.254;2022-11-06T01:51:35;35.53;;;18.38;;
71679;SDS011;59512;42.662;23.254;2022-11-06T01:54:03;31.30;;;17.17;;
71679;SDS011;59512;42.662;23.254;2022-11-06T01:56:30;36.13;;;18.30;;
71679;SDS011;59512;42.662;23.254;2022-11-06T01:58:55;31.70;;;17.27;;
71679;SDS011;59512;42.662;23.254;2022-11-06T02:01:21;36.73;;;18.83;;
71679;SDS011;59512;42.662;23.254;2022-11-06T02:03:49;35.47;;;18.58;;
71679;SDS011;59512;42.662;23.254;2022-11-06T02:06:20;37.72;;;18.75;;
71679;SDS011;59512;42.662;23.254;2022-11-06T02:08:45;33.73;;;18.63;;
71679;SDS011;59512;42.662;23.254;2022-11-06T02:11:11;32.60;;;18.40;;
71679;SDS011;59512;42.662;23.254;2022-11-06T02:13:46;38.40;;;19.10;;
71679;SDS011;59512;42.662;23.254;2022-11-06T02:27:00;33.50;;;18.10;;
71679;SDS011;59512;42.662;23.254;2022-11-06T02:32:20;40.83;;;18.33;;
71679;SDS011;59512;42.662;23.254;2022-11-06T02:34:49;29.05;;;16.90;;
71679;SDS011;59512;42.662;23.254;2022-11-06T02:37:17;33.90;;;17.63;;
71679;SDS011;59512;42.662;23.254;2022-11-06T02:39:46;30.10;;;15.95;;
71679;SDS011;59512;42.662;23.254;2022-11-06T02:42:12;35.40;;;17.10;;
71679;SDS011;59512;42.662;23.254;2022-11-06T02:44:39;32.25;;;17.23;;
71679;SDS011;59512;42.662;23.254;2022-11-06T02:47:07;33.60;;;17.23;;
71679;SDS011;59512;42.662;23.254;2022-11-06T02:49:44;31.90;;;16.15;;
71679;SDS011;59512;42.662;23.254;2022-11-06T02:52:27;28.75;;;15.80;;
71679;SDS011;59512;42.662;23.254;2022-11-06T02:54:56;28.67;;;15.33;;
71679;SDS011;59512;42.662;23.254;2022-11-06T02:57:33;31.15;;;16.40;;
71679;SDS011;59512;42.662;23.254;2022-11-06T03:00:04;27.55;;;15.65;;
71679;SDS011;59512;42.662;23.254;2022-11-06T03:02:32;26.40;;;14.10;;
71679;SDS011;59512;42.662;23.254;2022-11-06T03:05:07;29.77;;;14.30;;
71679;SDS011;59512;42.662;23.254;2022-11-06T03:07:46;31.33;;;14.67;;
71679;SDS011;59512;42.662;23.254;2022-11-06T03:10:16;25.77;;;13.63;;
71679;SDS011;59512;42.662;23.254;2022-11-06T03:12:54;29.33;;;15.25;;
71679;SDS011;59512;42.662;23.254;2022-11-06T03:15:25;28.08;;;14.43;;
71679;SDS011;59512;42.662;23.254;2022-11-06T03:18:12;28.20;;;14.77;;
71679;SDS011;59512;42.662;23.254;2022-11-06T03:23:49;25.75;;;14.18;;
71679;SDS011;59512;42.662;23.254;2022-11-06T03:26:22;27.95;;;13.82;;
71679;SDS011;59512;42.662;23.254;2022-11-06T03:31:56;25.30;;;13.03;;
71679;SDS011;59512;42.662;23.254;2022-11-06T03:34:34;30.05;;;13.52;;
71679;SDS011;59512;42.662;23.254;2022-11-06T03:37:09;22.92;;;11.85;;
71679;SDS011;59512;42.662;23.254;2022-11-06T03:39:39;24.88;;;12.43;;
71679;SDS011;59512;42.662;23.254;2022-11-06T03:42:11;21.42;;;11.68;;
71679;SDS011;59512;42.662;23.254;2022-11-06T03:44:39;26.50;;;11.87;;
71679;SDS011;59512;42.662;23.254;2022-11-06T03:47:10;24.10;;;11.70;;
71679;SDS011;59512;42.662;23.254;2022-11-06T03:49:40;22.30;;;11.65;;
71679;SDS011;59512;42.662;23.254;2022-11-06T03:52:15;24.48;;;12.10;;
71679;SDS011;59512;42.662;23.254;2022-11-06T03:54:59;25.17;;;12.80;;
71679;SDS011;59512;42.662;23.254;2022-11-06T03:57:32;25.60;;;12.73;;
71679;SDS011;59512;42.662;23.254;2022-11-06T04:00:07;23.38;;;11.27;;
71679;SDS011;59512;42.662;23.254;2022-11-06T04:02:35;27.42;;;13.00;;
71679;SDS011;59512;42.662;23.254;2022-11-06T04:05:06;23.67;;;12.45;;
71679;SDS011;59512;42.662;23.254;2022-11-06T04:07:36;26.83;;;13.02;;
71679;SDS011;59512;42.662;23.254;2022-11-06T04:10:05;26.07;;;11.93;;
71679;SDS011;59512;42.662;23.254;2022-11-06T04:12:52;24.95;;;13.38;;
71679;SDS011;59512;42.662;23.254;2022-11-06T04:15:43;26.10;;;12.40;;
71679;SDS011;59512;42.662;23.254;2022-11-06T04:18:13;21.33;;;11.57;;
71679;SDS011;59512;42.662;23.254;2022-11-06T04:20:46;22.00;;;11.30;;
71679;SDS011;59512;42.662;23.254;2022-11-06T04:26:08;16.88;;;9.55;;
71679;SDS011;59512;42.662;23.254;2022-11-06T04:34:48;17.60;;;9.57;;
71679;SDS011;59512;42.662;23.254;2022-11-06T04:37:27;17.48;;;9.30;;
71679;SDS011;59512;42.662;23.254;2022-11-06T04:40:08;17.13;;;9.70;;
71679;SDS011;59512;42.662;23.254;2022-11-06T04:42:45;24.05;;;10.27;;
71679;SDS011;59512;42.662;23.254;2022-11-06T04:45:19;19.58;;;10.07;;
71679;SDS011;59512;42.662;23.254;2022-11-06T04:47:49;19.50;;;10.33;;
71679;SDS011;59512;42.662;23.254;2022-11-06T04:50:16;17.77;;;10.02;;
71679;SDS011;59512;42.662;23.254;2022-11-06T04:52:42;18.67;;;9.75;;
71679;SDS011;59512;42.662;23.254;2022-11-06T04:55:08;20.80;;;10.13;;
71679;SDS011;59512;42.662;23.254;2022-11-06T04:57:34;21.83;;;10.53;;
71679;SDS011;59512;42.662;23.254;2022-11-06T04:59:59;22.13;;;10.90;;
71679;SDS011;59512;42.662;23.254;2022-11-06T05:02:25;18.70;;;9.85;;
71679;SDS011;59512;42.662;23.254;2022-11-06T05:04:50;20.67;;;10.48;;
71679;SDS011;59512;42.662;23.254;2022-11-06T05:07:16;22.37;;;11.37;;
71679;SDS011;59512;42.662;23.254;2022-11-06T05:09:41;26.70;;;11.83;;
71679;SDS011;59512;42.662;23.254;2022-11-06T05:12:07;26.50;;;12.20;;
71679;SDS011;59512;42.662;23.254;2022-11-06T05:14:33;35.20;;;13.30;;
71679;SDS011;59512;42.662;23.254;2022-11-06T05:16:58;22.07;;;10.00;;
71679;SDS011;59512;42.662;23.254;2022-11-06T05:19:23;14.60;;;8.70;;
71679;SDS011;59512;42.662;23.254;2022-11-06T05:21:49;20.33;;;8.83;;
71679;SDS011;59512;42.662;23.254;2022-11-06T05:24:33;18.83;;;9.13;;
71679;SDS011;59512;42.662;23.254;2022-11-06T05:26:58;17.87;;;9.17;;
71679;SDS011;59512;42.662;23.254;2022-11-06T05:29:24;16.53;;;8.90;;
71679;SDS011;59512;42.662;23.254;2022-11-06T05:31:49;24.53;;;10.37;;
71679;SDS011;59512;42.662;23.254;2022-11-06T05:34:15;18.23;;;9.83;;
71679;SDS011;59512;42.662;23.254;2022-11-06T05:36:40;18.20;;;9.98;;
71679;SDS011;59512;42.662;23.254;2022-11-06T05:39:05;16.77;;;9.40;;
71679;SDS011;59512;42.662;23.254;2022-11-06T05:41:31;20.77;;;10.57;;
71679;SDS011;59512;42.662;23.254;2022-11-06T05:43:56;18.47;;;9.73;;
71679;SDS011;59512;42.662;23.254;2022-11-06T05:46:22;19.23;;;10.30;;
71679;SDS011;59512;42.662;23.254;2022-11-06T05:48:47;19.90;;;10.27;;
71679;SDS011;59512;42.662;23.254;2022-11-06T05:51:13;18.07;;;9.63;;
71679;SDS011;59512;42.662;23.254;2022-11-06T05:53:38;17.43;;;9.53;;
71679;SDS011;59512;42.662;23.254;2022-11-06T05:56:03;20.90;;;10.80;;
71679;SDS011;59512;42.662;23.254;2022-11-06T05:58:29;21.02;;;10.70;;
71679;SDS011;59512;42.662;23.254;2022-11-06T06:00:55;19.60;;;10.50;;
71679;SDS011;59512;42.662;23.254;2022-11-06T06:03:21;18.20;;;10.10;;
71679;SDS011;59512;42.662;23.254;2022-11-06T06:05:47;21.83;;;12.03;;
71679;SDS011;59512;42.662;23.254;2022-11-06T06:08:12;20.15;;;10.75;;
71679;SDS011;59512;42.662;23.254;2022-11-06T06:10:41;21.43;;;11.30;;
71679;SDS011;59512;42.662;23.254;2022-11-06T06:13:08;24.15;;;11.57;;
71679;SDS011;59512;42.662;23.254;2022-11-06T06:15:33;20.17;;;11.40;;
71679;SDS011;59512;42.662;23.254;2022-11-06T06:17:59;21.00;;;11.53;;
71679;SDS011;59512;42.662;23.254;2022-11-06T06:20:24;21.00;;;11.87;;
71679;SDS011;59512;42.662;23.254;2022-11-06T06:22:56;23.53;;;12.03;;
71679;SDS011;59512;42.662;23.254;2022-11-06T06:25:22;21.55;;;12.27;;
71679;SDS011;59512;42.662;23.254;2022-11-06T06:27:47;22.50;;;11.60;;
71679;SDS011;59512;42.662;23.254;2022-11-06T06:30:13;16.25;;;10.70;;
71679;SDS011;59512;42.662;23.254;2022-11-06T06:32:38;19.30;;;11.30;;
71679;SDS011;59512;42.662;23.254;2022-11-06T06:35:04;23.93;;;11.87;;
71679;SDS011;59512;42.662;23.254;2022-11-06T06:37:30;28.00;;;13.57;;
71679;SDS011;59512;42.662;23.254;2022-11-06T06:39:55;26.23;;;12.00;;
71679;SDS011;59512;42.662;23.254;2022-11-06T06:42:20;21.53;;;11.67;;
71679;SDS011;59512;42.662;23.254;2022-11-06T06:44:46;21.13;;;11.50;;
71679;SDS011;59512;42.662;23.254;2022-11-06T06:47:12;19.88;;;11.73;;
71679;SDS011;59512;42.662;23.254;2022-11-06T06:49:40;22.83;;;11.88;;
71679;SDS011;59512;42.662;23.254;2022-11-06T06:52:06;21.67;;;11.43;;
71679;SDS011;59512;42.662;23.254;2022-11-06T06:54:32;24.05;;;13.48;;
71679;SDS011;59512;42.662;23.254;2022-11-06T06:56:57;23.30;;;11.87;;
71679;SDS011;59512;42.662;23.254;2022-11-06T06:59:26;25.42;;;12.82;;
71679;SDS011;59512;42.662;23.254;2022-11-06T07:01:52;38.50;;;18.87;;
71679;SDS011;59512;42.662;23.254;2022-11-06T07:04:18;42.38;;;20.70;;
71679;SDS011;59512;42.662;23.254;2022-11-06T07:06:43;30.57;;;15.13;;
71679;SDS011;59512;42.662;23.254;2022-11-06T07:09:09;25.17;;;14.30;;
71679;SDS011;59512;42.662;23.254;2022-11-06T07:11:34;22.20;;;12.40;;
71679;SDS011;59512;42.662;23.254;2022-11-06T07:13:59;23.77;;;12.15;;
71679;SDS011;59512;42.662;23.254;2022-11-06T07:16:25;23.13;;;12.55;;
71679;SDS011;59512;42.662;23.254;2022-11-06T07:18:52;22.67;;;11.50;;
71679;SDS011;59512;42.662;23.254;2022-11-06T07:21:17;23.02;;;11.68;;
71679;SDS011;59512;42.662;23.254;2022-11-06T07:23:43;21.73;;;11.47;;
71679;SDS011;59512;42.662;23.254;2022-11-06T07:26:08;22.23;;;12.90;;
71679;SDS011;59512;42.662;23.254;2022-11-06T07:28:34;22.07;;;11.93;;
71679;SDS011;59512;42.662;23.254;2022-11-06T07:31:00;22.67;;;11.30;;
71679;SDS011;59512;42.662;23.254;2022-11-06T07:33:30;19.05;;;11.05;;
71679;SDS011;59512;42.662;23.254;2022-11-06T07:36:00;18.58;;;9.98;;
71679;SDS011;59512;42.662;23.254;2022-11-06T07:38:36;19.08;;;10.13;;
71679;SDS011;59512;42.662;23.254;2022-11-06T07:41:05;21.10;;;10.43;;
71679;SDS011;59512;42.662;23.254;2022-11-06T07:43:31;22.38;;;10.85;;
71679;SDS011;59512;42.662;23.254;2022-11-06T07:45:58;18.38;;;11.05;;
71679;SDS011;59512;42.662;23.254;2022-11-06T07:48:25;21.77;;;10.07;;
71679;SDS011;59512;42.662;23.254;2022-11-06T07:50:50;22.23;;;11.40;;
71679;SDS011;59512;42.662;23.254;2022-11-06T07:53:16;18.90;;;10.68;;
71679;SDS011;59512;42.662;23.254;2022-11-06T07:55:51;21.50;;;11.73;;
71679;SDS011;59512;42.662;23.254;2022-11-06T07:58:17;20.15;;;10.90;;
71679;SDS011;59512;42.662;23.254;2022-11-06T08:00:46;22.17;;;10.93;;
71679;SDS011;59512;42.662;23.254;2022-11-06T08:03:16;19.98;;;10.70;;
71679;SDS011;59512;42.662;23.254;2022-11-06T08:05:42;22.10;;;11.65;;
71679;SDS011;59512;42.662;23.254;2022-11-06T08:08:07;20.87;;;11.13;;
71679;SDS011;59512;42.662;23.254;2022-11-06T08:10:33;19.25;;;10.93;;
71679;SDS011;59512;42.662;23.254;2022-11-06T08:13:01;20.63;;;10.57;;
71679;SDS011;59512;42.662;23.254;2022-11-06T08:15:27;22.77;;;10.83;;
71679;SDS011;59512;42.662;23.254;2022-11-06T08:17:52;21.50;;;11.30;;
71679;SDS011;59512;42.662;23.254;2022-11-06T08:20:18;19.42;;;11.30;;
71679;SDS011;59512;42.662;23.254;2022-11-06T08:22:43;23.63;;;10.85;;
71679;SDS011;59512;42.662;23.254;2022-11-06T08:25:09;22.30;;;11.90;;
71679;SDS011;59512;42.662;23.254;2022-11-06T08:27:34;22.97;;;12.23;;
71679;SDS011;59512;42.662;23.254;2022-11-06T08:30:00;23.73;;;11.97;;
71679;SDS011;59512;42.662;23.254;2022-11-06T08:32:26;27.23;;;12.70;;
71679;SDS011;59512;42.662;23.254;2022-11-06T08:34:52;24.77;;;12.13;;
71679;SDS011;59512;42.662;23.254;2022-11-06T08:37:17;22.42;;;11.90;;
71679;SDS011;59512;42.662;23.254;2022-11-06T08:39:44;20.73;;;11.70;;
71679;SDS011;59512;42.662;23.254;2022-11-06T08:42:09;20.87;;;11.23;;
71679;SDS011;59512;42.662;23.254;2022-11-06T08:44:35;19.23;;;11.05;;
71679;SDS011;59512;42.662;23.254;2022-11-06T08:47:01;20.87;;;12.73;;
71679;SDS011;59512;42.662;23.254;2022-11-06T08:49:26;31.97;;;13.60;;
71679;SDS011;59512;42.662;23.254;2022-11-06T08:51:52;25.27;;;13.17;;
71679;SDS011;59512;42.662;23.254;2022-11-06T08:54:18;24.45;;;14.18;;
71679;SDS011;59512;42.662;23.254;2022-11-06T08:56:44;26.10;;;14.45;;
71679;SDS011;59512;42.662;23.254;2022-11-06T08:59:09;26.57;;;13.43;;
71679;SDS011;59512;42.662;23.254;2022-11-06T09:01:35;23.90;;;13.33;;
71679;SDS011;59512;42.662;23.254;2022-11-06T09:04:00;27.77;;;14.33;;
71679;SDS011;59512;42.662;23.254;2022-11-06T09:06:26;23.58;;;13.23;;
71679;SDS011;59512;42.662;23.254;2022-11-06T09:08:51;23.17;;;13.17;;
71679;SDS011;59512;42.662;23.254;2022-11-06T09:11:17;25.33;;;13.37;;
71679;SDS011;59512;42.662;23.254;2022-11-06T09:13:42;23.03;;;13.27;;
71679;SDS011;59512;42.662;23.254;2022-11-06T09:16:07;25.40;;;13.93;;
71679;SDS011;59512;42.662;23.254;2022-11-06T09:18:33;23.77;;;13.35;;
71679;SDS011;59512;42.662;23.254;2022-11-06T09:20:58;24.10;;;13.07;;
71679;SDS011;59512;42.662;23.254;2022-11-06T09:23:24;22.50;;;13.37;;
71679;SDS011;59512;42.662;23.254;2022-11-06T09:25:49;23.03;;;13.53;;
71679;SDS011;59512;42.662;23.254;2022-11-06T09:28:15;26.05;;;13.50;;
71679;SDS011;59512;42.662;23.254;2022-11-06T09:30:40;25.93;;;14.23;;
71679;SDS011;59512;42.662;23.254;2022-11-06T09:33:06;30.38;;;14.88;;
71679;SDS011;59512;42.662;23.254;2022-11-06T09:35:32;29.05;;;15.18;;
71679;SDS011;59512;42.662;23.254;2022-11-06T09:38:05;26.03;;;14.67;;
71679;SDS011;59512;42.662;23.254;2022-11-06T09:40:35;28.83;;;15.80;;
71679;SDS011;59512;42.662;23.254;2022-11-06T09:43:05;27.15;;;15.73;;
71679;SDS011;59512;42.662;23.254;2022-11-06T09:45:39;29.23;;;15.52;;
71679;SDS011;59512;42.662;23.254;2022-11-06T09:48:27;30.15;;;16.35;;
71679;SDS011;59512;42.662;23.254;2022-11-06T09:50:57;31.07;;;17.13;;
71679;SDS011;59512;42.662;23.254;2022-11-06T09:53:35;30.35;;;17.10;;
71679;SDS011;59512;42.662;23.254;2022-11-06T09:56:04;32.85;;;18.58;;
71679;SDS011;59512;42.662;23.254;2022-11-06T09:58:37;27.65;;;17.17;;
71679;SDS011;59512;42.662;23.254;2022-11-06T10:01:28;26.88;;;15.55;;
71679;SDS011;59512;42.662;23.254;2022-11-06T10:03:57;27.77;;;15.40;;
71679;SDS011;59512;42.662;23.254;2022-11-06T10:06:24;31.42;;;15.93;;
71679;SDS011;59512;42.662;23.254;2022-11-06T10:08:51;25.88;;;14.23;;
71679;SDS011;59512;42.662;23.254;2022-11-06T10:21:47;24.43;;;12.80;;
71679;SDS011;59512;42.662;23.254;2022-11-06T10:24:19;23.50;;;13.35;;
71679;SDS011;59512;42.662;23.254;2022-11-06T10:26:49;19.83;;;11.68;;
71679;SDS011;59512;42.662;23.254;2022-11-06T10:34:34;22.30;;;12.30;;
71679;SDS011;59512;42.662;23.254;2022-11-06T10:40:15;19.95;;;12.35;;
71679;SDS011;59512;42.662;23.254;2022-11-06T10:42:42;20.40;;;12.27;;
71679;SDS011;59512;42.662;23.254;2022-11-06T10:45:12;20.48;;;11.55;;
71679;SDS011;59512;42.662;23.254;2022-11-06T10:47:44;20.27;;;11.77;;
71679;SDS011;59512;42.662;23.254;2022-11-06T10:50:13;20.67;;;11.63;;
71679;SDS011;59512;42.662;23.254;2022-11-06T10:57:58;18.20;;;10.60;;
71679;SDS011;59512;42.662;23.254;2022-11-06T11:00:26;24.17;;;13.23;;
71679;SDS011;59512;42.662;23.254;2022-11-06T11:02:52;28.50;;;13.93;;
71679;SDS011;59512;42.662;23.254;2022-11-06T11:05:20;16.47;;;10.53;;
71679;SDS011;59512;42.662;23.254;2022-11-06T11:07:48;15.63;;;9.15;;
71679;SDS011;59512;42.662;23.254;2022-11-06T11:12:48;13.57;;;8.32;;
71679;SDS011;59512;42.662;23.254;2022-11-06T11:15:16;12.02;;;7.10;;
71679;SDS011;59512;42.662;23.254;2022-11-06T11:17:44;12.13;;;6.77;;
71679;SDS011;59512;42.662;23.254;2022-11-06T11:20:32;13.95;;;6.18;;
71679;SDS011;59512;42.662;23.254;2022-11-06T11:25:57;11.05;;;6.30;;
71679;SDS011;59512;42.662;23.254;2022-11-06T11:28:42;11.35;;;6.18;;
71679;SDS011;59512;42.662;23.254;2022-11-06T11:31:12;12.90;;;7.07;;
71679;SDS011;59512;42.662;23.254;2022-11-06T11:33:39;15.15;;;7.53;;
71679;SDS011;59512;42.662;23.254;2022-11-06T11:36:06;12.13;;;6.60;;
71679;SDS011;59512;42.662;23.254;2022-11-06T11:38:34;11.50;;;6.37;;
71679;SDS011;59512;42.662;23.254;2022-11-06T11:41:13;13.30;;;7.15;;
71679;SDS011;59512;42.662;23.254;2022-11-06T11:46:33;11.25;;;6.78;;
71679;SDS011;59512;42.662;23.254;2022-11-06T11:48:59;11.60;;;6.30;;
71679;SDS011;59512;42.662;23.254;2022-11-06T11:51:27;13.93;;;6.95;;
71679;SDS011;59512;42.662;23.254;2022-11-06T11:54:04;15.73;;;7.68;;
71679;SDS011;59512;42.662;23.254;2022-11-06T11:59:29;13.70;;;7.30;;
71679;SDS011;59512;42.662;23.254;2022-11-06T12:01:57;13.25;;;7.50;;
71679;SDS011;59512;42.662;23.254;2022-11-06T12:04:27;17.10;;;8.80;;
71679;SDS011;59512;42.662;23.254;2022-11-06T12:07:05;15.45;;;8.52;;
71679;SDS011;59512;42.662;23.254;2022-11-06T12:09:32;14.80;;;8.63;;
71679;SDS011;59512;42.662;23.254;2022-11-06T12:12:04;17.58;;;9.45;;
71679;SDS011;59512;42.662;23.254;2022-11-06T12:14:31;18.42;;;10.13;;
71679;SDS011;59512;42.662;23.254;2022-11-06T12:17:03;18.33;;;10.03;;
71679;SDS011;59512;42.662;23.254;2022-11-06T12:19:41;15.40;;;9.45;;
71679;SDS011;59512;42.662;23.254;2022-11-06T12:22:15;21.17;;;11.10;;
71679;SDS011;59512;42.662;23.254;2022-11-06T12:24:59;21.75;;;11.38;;
71679;SDS011;59512;42.662;23.254;2022-11-06T12:27:28;19.60;;;10.50;;
71679;SDS011;59512;42.662;23.254;2022-11-06T12:33:16;16.67;;;10.50;;
71679;SDS011;59512;42.662;23.254;2022-11-06T12:40:34;13.45;;;8.57;;
71679;SDS011;59512;42.662;23.254;2022-11-06T12:43:12;14.03;;;8.97;;
71679;SDS011;59512;42.662;23.254;2022-11-06T12:51:15;14.80;;;7.50;;
71679;SDS011;59512;42.662;23.254;2022-11-06T13:07:37;15.37;;;8.97;;
71679;SDS011;59512;42.662;23.254;2022-11-06T13:15:39;15.73;;;8.63;;
71679;SDS011;59512;42.662;23.254;2022-11-06T13:18:15;16.63;;;8.63;;
71679;SDS011;59512;42.662;23.254;2022-11-06T13:23:38;14.82;;;8.50;;
71679;SDS011;59512;42.662;23.254;2022-11-06T13:26:12;15.87;;;9.17;;
71679;SDS011;59512;42.662;23.254;2022-11-06T13:28:43;15.52;;;7.50;;
71679;SDS011;59512;42.662;23.254;2022-11-06T13:31:12;14.55;;;7.93;;
71679;SDS011;59512;42.662;23.254;2022-11-06T13:33:52;14.70;;;8.23;;
71679;SDS011;59512;42.662;23.254;2022-11-06T13:36:20;17.13;;;8.90;;
71679;SDS011;59512;42.662;23.254;2022-11-06T13:38:48;16.47;;;8.80;;
71679;SDS011;59512;42.662;23.254;2022-11-06T13:41:28;20.85;;;10.77;;
71679;SDS011;59512;42.662;23.254;2022-11-06T13:44:01;17.52;;;9.48;;
71679;SDS011;59512;42.662;23.254;2022-11-06T13:49:13;14.83;;;7.80;;
71679;SDS011;59512;42.662;23.254;2022-11-06T13:51:57;15.18;;;7.50;;
71679;SDS011;59512;42.662;23.254;2022-11-06T13:54:37;13.43;;;7.00;;
71679;SDS011;59512;42.662;23.254;2022-11-06T14:00:05;14.05;;;7.97;;
71679;SDS011;59512;42.662;23.254;2022-11-06T14:08:13;14.52;;;7.72;;
71679;SDS011;59512;42.662;23.254;2022-11-06T14:11:02;16.03;;;7.17;;
71679;SDS011;59512;42.662;23.254;2022-11-06T14:13:34;15.32;;;7.40;;
71679;SDS011;59512;42.662;23.254;2022-11-06T14:18:28;20.80;;;7.22;;
71679;SDS011;59512;42.662;23.254;2022-11-06T14:21:24;19.02;;;7.53;;
71679;SDS011;59512;42.662;23.254;2022-11-06T14:23:53;18.10;;;10.00;;
71679;SDS011;59512;42.662;23.254;2022-11-06T14:34:33;12.77;;;7.15;;
71679;SDS011;59512;42.662;23.254;2022-11-06T14:37:19;15.23;;;8.13;;
71679;SDS011;59512;42.662;23.254;2022-11-06T14:47:48;11.43;;;5.57;;
71679;SDS011;59512;42.662;23.254;2022-11-06T14:52:50;10.93;;;5.83;;
71679;SDS011;59512;42.662;23.254;2022-11-06T14:57:53;11.55;;;6.30;;
71679;SDS011;59512;42.662;23.254;2022-11-06T15:03:02;14.50;;;7.65;;
71679;SDS011;59512;42.662;23.254;2022-11-06T15:05:29;13.13;;;6.88;;
71679;SDS011;59512;42.662;23.254;2022-11-06T15:08:00;12.02;;;7.68;;
71679;SDS011;59512;42.662;23.254;2022-11-06T15:15:41;15.30;;;7.90;;
71679;SDS011;59512;42.662;23.254;2022-11-06T15:18:12;15.48;;;7.03;;
71679;SDS011;59512;42.662;23.254;2022-11-06T15:20:40;16.98;;;7.30;;
71679;SDS011;59512;42.662;23.254;2022-11-06T15:23:09;17.30;;;7.23;;
71679;SDS011;59512;42.662;23.254;2022-11-06T15:25:39;12.38;;;6.10;;
71679;SDS011;59512;42.662;23.254;2022-11-06T15:28:12;17.70;;;8.07;;
71679;SDS011;59512;42.662;23.254;2022-11-06T15:30:47;11.45;;;6.03;;
71679;SDS011;59512;42.662;23.254;2022-11-06T15:33:20;19.88;;;8.65;;
71679;SDS011;59512;42.662;23.254;2022-11-06T15:35:57;14.93;;;7.47;;
71679;SDS011;59512;42.662;23.254;2022-11-06T15:38:34;29.25;;;12.07;;
71679;SDS011;59512;42.662;23.254;2022-11-06T15:41:07;13.38;;;6.28;;
71679;SDS011;59512;42.662;23.254;2022-11-06T15:43:37;23.67;;;10.18;;
71679;SDS011;59512;42.662;23.254;2022-11-06T15:46:14;18.73;;;7.37;;
71679;SDS011;59512;42.662;23.254;2022-11-06T15:48:43;16.67;;;7.65;;
71679;SDS011;59512;42.662;23.254;2022-11-06T15:51:19;20.20;;;8.43;;
71679;SDS011;59512;42.662;23.254;2022-11-06T15:53:46;14.65;;;6.60;;
71679;SDS011;59512;42.662;23.254;2022-11-06T15:56:11;13.10;;;6.20;;
71679;SDS011;59512;42.662;23.254;2022-11-06T15:58:38;11.15;;;5.65;;
71679;SDS011;59512;42.662;23.254;2022-11-06T16:01:04;12.37;;;5.47;;
71679;SDS011;59512;42.662;23.254;2022-11-06T16:03:32;13.05;;;5.18;;
71679;SDS011;59512;42.662;23.254;2022-11-06T16:06:15;13.30;;;4.80;;
71679;SDS011;59512;42.662;23.254;2022-11-06T16:08:40;12.40;;;5.10;;
71679;SDS011;59512;42.662;23.254;2022-11-06T16:11:08;13.25;;;4.82;;
71679;SDS011;59512;42.662;23.254;2022-11-06T16:13:39;10.00;;;4.70;;
71679;SDS011;59512;42.662;23.254;2022-11-06T16:16:05;11.50;;;5.40;;
71679;SDS011;59512;42.662;23.254;2022-11-06T16:18:32;13.70;;;5.60;;
71679;SDS011;59512;42.662;23.254;2022-11-06T16:21:10;12.50;;;5.37;;
71679;SDS011;59512;42.662;23.254;2022-11-06T16:23:38;13.65;;;6.05;;
71679;SDS011;59512;42.662;23.254;2022-11-06T16:26:13;17.05;;;6.57;;
71679;SDS011;59512;42.662;23.254;2022-11-06T16:28:43;13.73;;;5.43;;
71679;SDS011;59512;42.662;23.254;2022-11-06T16:31:15;15.57;;;6.63;;
71679;SDS011;59512;42.662;23.254;2022-11-06T16:34:06;15.57;;;6.00;;
71679;SDS011;59512;42.662;23.254;2022-11-06T16:44:30;13.43;;;7.00;;
71679;SDS011;59512;42.662;23.254;2022-11-06T16:49:38;13.65;;;6.97;;
71679;SDS011;59512;42.662;23.254;2022-11-06T16:52:28;13.30;;;6.88;;
71679;SDS011;59512;42.662;23.254;2022-11-06T16:54:56;15.88;;;8.20;;
71679;SDS011;59512;42.662;23.254;2022-11-06T16:57:25;12.82;;;7.47;;
71679;SDS011;59512;42.662;23.254;2022-11-06T16:59:53;15.02;;;7.10;;
71679;SDS011;59512;42.662;23.254;2022-11-06T17:02:24;13.53;;;7.70;;